sensor_id;sensor_type;location;lat;lon;timestamp;P1;durP1;ratioP1;P2;durP2;ratioP2
19312;SDS011;9791;50.820;4.406;2023-02-01T00:01:21;20.20;;;10.23;;
19312;SDS011;9791;50.820;4.406;2023-02-01T00:03:47;23.10;;;10.25;;
19312;SDS011;9791;50.820;4.406;2023-02-01T00:06:13;22.20;;;9.85;;
19312;SDS011;9791;50.820;4.406;2023-02-01T00:08:39;25.27;;;9.63;;
19312;SDS011;9791;50.820;4.406;2023-02-01T00:11:06;23.45;;;9.80;;
19312;SDS011;9791;50.820;4.406;2023-02-01T00:13:32;23.65;;;10.43;;
19312;SDS011;9791;50.820;4.406;2023-02-01T00:16:06;19.92;;;9.30;;
19312;SDS011;9791;50.820;4.406;2023-02-01T00:18:32;28.75;;;9.90;;
19312;SDS011;9791;50.820;4.406;2023-02-01T00:20:58;22.25;;;9.60;;
19312;SDS011;9791;50.820;4.406;2023-02-01T00:23:24;23.55;;;10.48;;
19312;SDS011;9791;50.820;4.406;2023-02-01T00:25:50;23.00;;;9.68;;
19312;SDS011;9791;50.820;4.406;2023-02-01T00:28:16;22.48;;;9.73;;
19312;SDS011;9791;50.820;4.406;2023-02-01T00:30:42;22.98;;;9.05;;
19312;SDS011;9791;50.820;4.406;2023-02-01T00:33:09;21.90;;;10.35;;
19312;SDS011;9791;50.820;4.406;2023-02-01T00:35:35;18.38;;;9.07;;
19312;SDS011;9791;50.820;4.406;2023-02-01T00:38:01;28.00;;;9.55;;
19312;SDS011;9791;50.820;4.406;2023-02-01T00:40:27;19.80;;;8.82;;
19312;SDS011;9791;50.820;4.406;2023-02-01T00:42:53;26.98;;;9.52;;
19312;SDS011;9791;50.820;4.406;2023-02-01T00:45:19;19.25;;;8.38;;
19312;SDS011;9791;50.820;4.406;2023-02-01T00:47:45;18.48;;;8.52;;
19312;SDS011;9791;50.820;4.406;2023-02-01T00:50:11;26.35;;;8.88;;
19312;SDS011;9791;50.820;4.406;2023-02-01T00:52:37;23.08;;;8.45;;
19312;SDS011;9791;50.820;4.406;2023-02-01T00:55:04;26.88;;;7.55;;
19312;SDS011;9791;50.820;4.406;2023-02-01T00:57:30;14.63;;;6.97;;
19312;SDS011;9791;50.820;4.406;2023-02-01T00:59:56;17.55;;;7.18;;
19312;SDS011;9791;50.820;4.406;2023-02-01T01:02:22;22.48;;;7.70;;
19312;SDS011;9791;50.820;4.406;2023-02-01T01:04:48;13.93;;;6.65;;
19312;SDS011;9791;50.820;4.406;2023-02-01T01:07:14;20.10;;;6.68;;
19312;SDS011;9791;50.820;4.406;2023-02-01T01:09:40;12.52;;;6.05;;
19312;SDS011;9791;50.820;4.406;2023-02-01T01:12:06;17.40;;;6.80;;
19312;SDS011;9791;50.820;4.406;2023-02-01T01:14:32;18.48;;;6.55;;
19312;SDS011;9791;50.820;4.406;2023-02-01T01:16:58;17.90;;;6.35;;
19312;SDS011;9791;50.820;4.406;2023-02-01T01:19:24;17.10;;;6.55;;
19312;SDS011;9791;50.820;4.406;2023-02-01T01:21:50;20.70;;;6.38;;
19312;SDS011;9791;50.820;4.406;2023-02-01T01:24:16;16.58;;;5.53;;
19312;SDS011;9791;50.820;4.406;2023-02-01T01:26:42;17.38;;;6.10;;
19312;SDS011;9791;50.820;4.406;2023-02-01T01:29:09;20.35;;;6.55;;
19312;SDS011;9791;50.820;4.406;2023-02-01T01:31:36;21.60;;;5.40;;
19312;SDS011;9791;50.820;4.406;2023-02-01T01:34:02;16.05;;;5.68;;
19312;SDS011;9791;50.820;4.406;2023-02-01T01:36:28;14.00;;;4.43;;
19312;SDS011;9791;50.820;4.406;2023-02-01T01:38:54;19.52;;;4.75;;
19312;SDS011;9791;50.820;4.406;2023-02-01T01:41:22;19.63;;;3.78;;
19312;SDS011;9791;50.820;4.406;2023-02-01T01:46:29;11.27;;;4.13;;
19312;SDS011;9791;50.820;4.406;2023-02-01T01:49:06;16.33;;;4.20;;
19312;SDS011;9791;50.820;4.406;2023-02-01T01:51:35;17.02;;;4.68;;
19312;SDS011;9791;50.820;4.406;2023-02-01T01:54:05;19.15;;;4.78;;
19312;SDS011;9791;50.820;4.406;2023-02-01T01:56:32;17.92;;;3.80;;
19312;SDS011;9791;50.820;4.406;2023-02-01T01:58:59;12.10;;;4.45;;
19312;SDS011;9791;50.820;4.406;2023-02-01T02:01:26;15.57;;;4.18;;
19312;SDS011;9791;50.820;4.406;2023-02-01T02:03:52;16.00;;;4.22;;
19312;SDS011;9791;50.820;4.406;2023-02-01T02:06:31;13.75;;;3.90;;
19312;SDS011;9791;50.820;4.406;2023-02-01T02:08:59;23.00;;;4.60;;
19312;SDS011;9791;50.820;4.406;2023-02-01T02:11:25;18.05;;;3.90;;
19312;SDS011;9791;50.820;4.406;2023-02-01T02:13:52;17.85;;;4.18;;
19312;SDS011;9791;50.820;4.406;2023-02-01T02:32:18;14.30;;;3.72;;
19312;SDS011;9791;50.820;4.406;2023-02-01T02:34:53;14.43;;;3.72;;
19312;SDS011;9791;50.820;4.406;2023-02-01T02:37:37;16.05;;;4.32;;
19312;SDS011;9791;50.820;4.406;2023-02-01T02:40:06;14.60;;;3.75;;
19312;SDS011;9791;50.820;4.406;2023-02-01T02:45:24;17.13;;;3.92;;
19312;SDS011;9791;50.820;4.406;2023-02-01T02:48:20;12.57;;;3.65;;
19312;SDS011;9791;50.820;4.406;2023-02-01T02:53:51;18.02;;;3.70;;
19312;SDS011;9791;50.820;4.406;2023-02-01T02:56:36;21.75;;;5.43;;
19312;SDS011;9791;50.820;4.406;2023-02-01T02:59:21;14.63;;;3.60;;
19312;SDS011;9791;50.820;4.406;2023-02-01T03:02:08;17.23;;;3.95;;
19312;SDS011;9791;50.820;4.406;2023-02-01T03:04:53;16.40;;;3.80;;
19312;SDS011;9791;50.820;4.406;2023-02-01T03:10:08;13.05;;;3.35;;
19312;SDS011;9791;50.820;4.406;2023-02-01T03:12:36;18.58;;;4.20;;
19312;SDS011;9791;50.820;4.406;2023-02-01T03:15:24;14.23;;;3.45;;
19312;SDS011;9791;50.820;4.406;2023-02-01T03:17:52;13.48;;;3.50;;
19312;SDS011;9791;50.820;4.406;2023-02-01T03:20:21;20.08;;;4.03;;
19312;SDS011;9791;50.820;4.406;2023-02-01T03:22:48;10.15;;;3.33;;
19312;SDS011;9791;50.820;4.406;2023-02-01T03:25:17;17.92;;;3.72;;
19312;SDS011;9791;50.820;4.406;2023-02-01T03:28:00;14.10;;;3.83;;
19312;SDS011;9791;50.820;4.406;2023-02-01T03:30:36;19.80;;;4.10;;
19312;SDS011;9791;50.820;4.406;2023-02-01T03:33:04;17.02;;;3.85;;
19312;SDS011;9791;50.820;4.406;2023-02-01T03:38:04;19.50;;;3.60;;
19312;SDS011;9791;50.820;4.406;2023-02-01T03:40:34;14.20;;;3.67;;
19312;SDS011;9791;50.820;4.406;2023-02-01T03:43:00;16.67;;;4.85;;
19312;SDS011;9791;50.820;4.406;2023-02-01T03:45:29;13.95;;;3.72;;
19312;SDS011;9791;50.820;4.406;2023-02-01T03:47:57;15.18;;;4.13;;
19312;SDS011;9791;50.820;4.406;2023-02-01T03:50:25;18.77;;;4.38;;
19312;SDS011;9791;50.820;4.406;2023-02-01T03:52:56;15.38;;;4.10;;
19312;SDS011;9791;50.820;4.406;2023-02-01T03:55:25;19.30;;;4.18;;
19312;SDS011;9791;50.820;4.406;2023-02-01T03:57:57;17.63;;;3.90;;
19312;SDS011;9791;50.820;4.406;2023-02-01T04:00:25;16.08;;;3.70;;
19312;SDS011;9791;50.820;4.406;2023-02-01T04:02:51;14.63;;;3.33;;
19312;SDS011;9791;50.820;4.406;2023-02-01T04:05:18;16.40;;;4.22;;
19312;SDS011;9791;50.820;4.406;2023-02-01T04:07:44;17.33;;;4.20;;
19312;SDS011;9791;50.820;4.406;2023-02-01T04:10:10;13.93;;;4.75;;
19312;SDS011;9791;50.820;4.406;2023-02-01T04:12:37;18.42;;;3.75;;
19312;SDS011;9791;50.820;4.406;2023-02-01T04:15:03;18.60;;;4.75;;
19312;SDS011;9791;50.820;4.406;2023-02-01T04:17:29;16.45;;;3.25;;
19312;SDS011;9791;50.820;4.406;2023-02-01T04:19:55;23.27;;;4.18;;
19312;SDS011;9791;50.820;4.406;2023-02-01T04:22:21;15.82;;;3.97;;
19312;SDS011;9791;50.820;4.406;2023-02-01T04:24:47;14.45;;;3.90;;
19312;SDS011;9791;50.820;4.406;2023-02-01T04:27:13;19.58;;;3.92;;
19312;SDS011;9791;50.820;4.406;2023-02-01T04:29:39;14.82;;;4.47;;
19312;SDS011;9791;50.820;4.406;2023-02-01T04:32:06;15.05;;;3.88;;
19312;SDS011;9791;50.820;4.406;2023-02-01T04:34:32;17.58;;;4.00;;
19312;SDS011;9791;50.820;4.406;2023-02-01T04:36:58;20.85;;;4.30;;
19312;SDS011;9791;50.820;4.406;2023-02-01T04:39:24;15.73;;;3.78;;
19312;SDS011;9791;50.820;4.406;2023-02-01T04:41:50;18.60;;;4.32;;
19312;SDS011;9791;50.820;4.406;2023-02-01T04:44:17;18.17;;;3.38;;
19312;SDS011;9791;50.820;4.406;2023-02-01T04:46:44;17.58;;;3.28;;
19312;SDS011;9791;50.820;4.406;2023-02-01T04:49:10;17.75;;;4.00;;
19312;SDS011;9791;50.820;4.406;2023-02-01T04:51:37;16.38;;;3.67;;
19312;SDS011;9791;50.820;4.406;2023-02-01T04:54:03;11.95;;;3.80;;
19312;SDS011;9791;50.820;4.406;2023-02-01T04:56:29;19.77;;;3.65;;
19312;SDS011;9791;50.820;4.406;2023-02-01T04:58:55;16.65;;;4.30;;
19312;SDS011;9791;50.820;4.406;2023-02-01T05:01:22;11.15;;;3.50;;
19312;SDS011;9791;50.820;4.406;2023-02-01T05:03:49;13.18;;;3.53;;
19312;SDS011;9791;50.820;4.406;2023-02-01T05:06:16;20.13;;;4.65;;
19312;SDS011;9791;50.820;4.406;2023-02-01T05:08:42;15.18;;;3.45;;
19312;SDS011;9791;50.820;4.406;2023-02-01T05:11:08;17.55;;;3.70;;
19312;SDS011;9791;50.820;4.406;2023-02-01T05:13:57;15.43;;;3.55;;
19312;SDS011;9791;50.820;4.406;2023-02-01T05:16:23;27.80;;;4.72;;
19312;SDS011;9791;50.820;4.406;2023-02-01T05:18:49;18.40;;;4.07;;
19312;SDS011;9791;50.820;4.406;2023-02-01T05:21:15;18.40;;;3.63;;
19312;SDS011;9791;50.820;4.406;2023-02-01T05:23:41;17.60;;;4.40;;
19312;SDS011;9791;50.820;4.406;2023-02-01T05:26:26;18.27;;;3.60;;
19312;SDS011;9791;50.820;4.406;2023-02-01T05:28:52;22.10;;;3.70;;
19312;SDS011;9791;50.820;4.406;2023-02-01T05:31:18;18.70;;;3.67;;
19312;SDS011;9791;50.820;4.406;2023-02-01T05:33:44;21.23;;;4.67;;
19312;SDS011;9791;50.820;4.406;2023-02-01T05:36:10;13.05;;;3.30;;
19312;SDS011;9791;50.820;4.406;2023-02-01T05:38:37;18.20;;;4.18;;
19312;SDS011;9791;50.820;4.406;2023-02-01T05:41:03;14.23;;;3.95;;
19312;SDS011;9791;50.820;4.406;2023-02-01T05:43:30;21.17;;;3.90;;
19312;SDS011;9791;50.820;4.406;2023-02-01T05:45:56;13.32;;;3.40;;
19312;SDS011;9791;50.820;4.406;2023-02-01T05:48:22;18.40;;;5.40;;
19312;SDS011;9791;50.820;4.406;2023-02-01T05:50:48;21.80;;;4.73;;
19312;SDS011;9791;50.820;4.406;2023-02-01T05:53:14;22.90;;;4.33;;
19312;SDS011;9791;50.820;4.406;2023-02-01T05:55:42;18.90;;;4.20;;
19312;SDS011;9791;50.820;4.406;2023-02-01T05:58:08;17.73;;;3.83;;
19312;SDS011;9791;50.820;4.406;2023-02-01T06:00:34;16.43;;;3.97;;
19312;SDS011;9791;50.820;4.406;2023-02-01T06:03:00;21.27;;;4.40;;
19312;SDS011;9791;50.820;4.406;2023-02-01T06:05:26;15.77;;;3.80;;
19312;SDS011;9791;50.820;4.406;2023-02-01T06:07:52;16.53;;;4.33;;
19312;SDS011;9791;50.820;4.406;2023-02-01T06:10:18;22.37;;;4.10;;
19312;SDS011;9791;50.820;4.406;2023-02-01T06:12:45;18.93;;;3.87;;
19312;SDS011;9791;50.820;4.406;2023-02-01T06:15:11;18.03;;;4.23;;
19312;SDS011;9791;50.820;4.406;2023-02-01T06:17:37;19.83;;;4.60;;
19312;SDS011;9791;50.820;4.406;2023-02-01T06:20:06;18.08;;;4.90;;
19312;SDS011;9791;50.820;4.406;2023-02-01T06:22:32;14.87;;;3.50;;
19312;SDS011;9791;50.820;4.406;2023-02-01T06:25:01;14.00;;;4.20;;
19312;SDS011;9791;50.820;4.406;2023-02-01T06:27:27;15.67;;;3.60;;
19312;SDS011;9791;50.820;4.406;2023-02-01T06:29:53;12.63;;;3.80;;
19312;SDS011;9791;50.820;4.406;2023-02-01T06:32:20;14.77;;;3.83;;
19312;SDS011;9791;50.820;4.406;2023-02-01T06:34:46;19.63;;;4.20;;
19312;SDS011;9791;50.820;4.406;2023-02-01T06:37:12;20.33;;;4.27;;
19312;SDS011;9791;50.820;4.406;2023-02-01T06:39:38;14.50;;;3.47;;
19312;SDS011;9791;50.820;4.406;2023-02-01T06:42:04;22.23;;;3.90;;
19312;SDS011;9791;50.820;4.406;2023-02-01T06:44:31;16.47;;;3.90;;
19312;SDS011;9791;50.820;4.406;2023-02-01T06:46:57;17.50;;;3.93;;
19312;SDS011;9791;50.820;4.406;2023-02-01T06:49:23;23.57;;;4.13;;
19312;SDS011;9791;50.820;4.406;2023-02-01T06:51:49;17.87;;;4.50;;
19312;SDS011;9791;50.820;4.406;2023-02-01T06:54:15;17.70;;;3.97;;
19312;SDS011;9791;50.820;4.406;2023-02-01T06:56:41;18.40;;;4.07;;
19312;SDS011;9791;50.820;4.406;2023-02-01T06:59:07;21.30;;;3.80;;
19312;SDS011;9791;50.820;4.406;2023-02-01T07:01:33;16.70;;;4.37;;
19312;SDS011;9791;50.820;4.406;2023-02-01T07:03:59;25.13;;;4.80;;
19312;SDS011;9791;50.820;4.406;2023-02-01T07:06:25;19.97;;;4.10;;
19312;SDS011;9791;50.820;4.406;2023-02-01T07:08:51;21.27;;;3.97;;
19312;SDS011;9791;50.820;4.406;2023-02-01T07:11:20;24.37;;;4.37;;
19312;SDS011;9791;50.820;4.406;2023-02-01T07:13:47;21.80;;;3.83;;
19312;SDS011;9791;50.820;4.406;2023-02-01T07:16:14;19.77;;;4.20;;
19312;SDS011;9791;50.820;4.406;2023-02-01T07:18:40;22.17;;;4.83;;
19312;SDS011;9791;50.820;4.406;2023-02-01T07:21:06;17.53;;;4.47;;
19312;SDS011;9791;50.820;4.406;2023-02-01T07:23:33;30.43;;;5.30;;
19312;SDS011;9791;50.820;4.406;2023-02-01T07:26:00;15.80;;;4.43;;
19312;SDS011;9791;50.820;4.406;2023-02-01T07:28:27;22.93;;;5.93;;
19312;SDS011;9791;50.820;4.406;2023-02-01T07:30:53;16.53;;;4.30;;
19312;SDS011;9791;50.820;4.406;2023-02-01T07:33:20;13.65;;;3.95;;
19312;SDS011;9791;50.820;4.406;2023-02-01T07:35:47;13.37;;;3.67;;
19312;SDS011;9791;50.820;4.406;2023-02-01T07:38:13;24.47;;;4.47;;
19312;SDS011;9791;50.820;4.406;2023-02-01T07:40:40;21.70;;;3.80;;
19312;SDS011;9791;50.820;4.406;2023-02-01T07:43:06;23.40;;;4.18;;
19312;SDS011;9791;50.820;4.406;2023-02-01T07:45:33;22.30;;;4.60;;
19312;SDS011;9791;50.820;4.406;2023-02-01T07:47:59;21.23;;;4.47;;
19312;SDS011;9791;50.820;4.406;2023-02-01T07:50:25;24.42;;;4.30;;
19312;SDS011;9791;50.820;4.406;2023-02-01T07:52:51;16.35;;;4.13;;
19312;SDS011;9791;50.820;4.406;2023-02-01T07:55:18;21.13;;;4.25;;
19312;SDS011;9791;50.820;4.406;2023-02-01T07:57:44;17.13;;;4.05;;
19312;SDS011;9791;50.820;4.406;2023-02-01T08:00:10;23.67;;;4.18;;
19312;SDS011;9791;50.820;4.406;2023-02-01T08:02:57;14.55;;;4.50;;
19312;SDS011;9791;50.820;4.406;2023-02-01T08:05:23;21.40;;;5.43;;
19312;SDS011;9791;50.820;4.406;2023-02-01T08:07:50;17.38;;;3.78;;
19312;SDS011;9791;50.820;4.406;2023-02-01T08:10:16;17.13;;;4.10;;
19312;SDS011;9791;50.820;4.406;2023-02-01T08:12:42;18.23;;;4.28;;
19312;SDS011;9791;50.820;4.406;2023-02-01T08:15:12;14.93;;;4.40;;
19312;SDS011;9791;50.820;4.406;2023-02-01T08:17:38;19.02;;;3.85;;
19312;SDS011;9791;50.820;4.406;2023-02-01T08:20:04;16.33;;;4.28;;
19312;SDS011;9791;50.820;4.406;2023-02-01T08:22:31;16.80;;;3.65;;
19312;SDS011;9791;50.820;4.406;2023-02-01T08:24:57;16.27;;;3.78;;
19312;SDS011;9791;50.820;4.406;2023-02-01T08:27:26;14.77;;;4.03;;
19312;SDS011;9791;50.820;4.406;2023-02-01T08:29:52;25.55;;;4.97;;
19312;SDS011;9791;50.820;4.406;2023-02-01T08:32:19;18.05;;;4.50;;
19312;SDS011;9791;50.820;4.406;2023-02-01T08:34:45;18.60;;;4.25;;
19312;SDS011;9791;50.820;4.406;2023-02-01T08:37:11;22.55;;;4.85;;
19312;SDS011;9791;50.820;4.406;2023-02-01T08:39:37;16.23;;;4.03;;
19312;SDS011;9791;50.820;4.406;2023-02-01T08:42:03;16.95;;;4.05;;
19312;SDS011;9791;50.820;4.406;2023-02-01T08:44:48;15.38;;;4.00;;
19312;SDS011;9791;50.820;4.406;2023-02-01T08:47:14;13.20;;;3.58;;
19312;SDS011;9791;50.820;4.406;2023-02-01T08:49:40;13.20;;;4.13;;
19312;SDS011;9791;50.820;4.406;2023-02-01T08:52:06;16.75;;;4.93;;
19312;SDS011;9791;50.820;4.406;2023-02-01T08:54:32;18.30;;;4.28;;
19312;SDS011;9791;50.820;4.406;2023-02-01T08:56:58;16.00;;;3.92;;
19312;SDS011;9791;50.820;4.406;2023-02-01T08:59:24;15.30;;;4.10;;
19312;SDS011;9791;50.820;4.406;2023-02-01T09:01:50;18.90;;;4.40;;
19312;SDS011;9791;50.820;4.406;2023-02-01T09:04:16;16.25;;;3.47;;
19312;SDS011;9791;50.820;4.406;2023-02-01T09:06:42;10.50;;;3.15;;
19312;SDS011;9791;50.820;4.406;2023-02-01T09:09:08;21.25;;;5.15;;
19312;SDS011;9791;50.820;4.406;2023-02-01T09:11:34;14.32;;;3.70;;
19312;SDS011;9791;50.820;4.406;2023-02-01T09:14:00;13.60;;;3.45;;
19312;SDS011;9791;50.820;4.406;2023-02-01T09:16:26;16.58;;;4.15;;
19312;SDS011;9791;50.820;4.406;2023-02-01T09:18:52;14.30;;;3.92;;
19312;SDS011;9791;50.820;4.406;2023-02-01T09:21:19;17.73;;;4.15;;
19312;SDS011;9791;50.820;4.406;2023-02-01T09:23:45;12.25;;;3.50;;
19312;SDS011;9791;50.820;4.406;2023-02-01T09:26:13;15.18;;;3.85;;
19312;SDS011;9791;50.820;4.406;2023-02-01T09:28:39;16.13;;;3.67;;
19312;SDS011;9791;50.820;4.406;2023-02-01T09:31:05;11.90;;;3.85;;
19312;SDS011;9791;50.820;4.406;2023-02-01T09:33:31;12.55;;;3.65;;
19312;SDS011;9791;50.820;4.406;2023-02-01T09:35:58;13.10;;;4.00;;
19312;SDS011;9791;50.820;4.406;2023-02-01T09:38:24;13.20;;;3.67;;
19312;SDS011;9791;50.820;4.406;2023-02-01T09:40:52;15.27;;;4.22;;
19312;SDS011;9791;50.820;4.406;2023-02-01T09:43:25;11.60;;;3.85;;
19312;SDS011;9791;50.820;4.406;2023-02-01T09:48:33;15.43;;;4.53;;
19312;SDS011;9791;50.820;4.406;2023-02-01T09:51:02;11.93;;;4.45;;
19312;SDS011;9791;50.820;4.406;2023-02-01T10:01:01;17.40;;;4.15;;
19312;SDS011;9791;50.820;4.406;2023-02-01T10:03:28;14.32;;;4.05;;
19312;SDS011;9791;50.820;4.406;2023-02-01T10:21:58;12.50;;;3.58;;
19312;SDS011;9791;50.820;4.406;2023-02-01T10:26:55;17.67;;;3.53;;
19312;SDS011;9791;50.820;4.406;2023-02-01T10:29:24;10.02;;;3.33;;
19312;SDS011;9791;50.820;4.406;2023-02-01T10:31:51;12.25;;;3.45;;
19312;SDS011;9791;50.820;4.406;2023-02-01T10:34:21;11.07;;;3.20;;
19312;SDS011;9791;50.820;4.406;2023-02-01T10:36:55;9.25;;;3.03;;
19312;SDS011;9791;50.820;4.406;2023-02-01T10:39:22;11.32;;;2.90;;
19312;SDS011;9791;50.820;4.406;2023-02-01T10:41:48;11.70;;;3.13;;
19312;SDS011;9791;50.820;4.406;2023-02-01T10:44:15;12.63;;;3.40;;
19312;SDS011;9791;50.820;4.406;2023-02-01T10:46:42;13.15;;;3.55;;
19312;SDS011;9791;50.820;4.406;2023-02-01T10:49:13;11.32;;;3.00;;
19312;SDS011;9791;50.820;4.406;2023-02-01T10:51:43;12.75;;;3.03;;
19312;SDS011;9791;50.820;4.406;2023-02-01T10:54:18;11.20;;;3.30;;
19312;SDS011;9791;50.820;4.406;2023-02-01T10:56:45;11.95;;;3.20;;
19312;SDS011;9791;50.820;4.406;2023-02-01T10:59:18;13.18;;;3.17;;
19312;SDS011;9791;50.820;4.406;2023-02-01T11:01:46;11.48;;;3.28;;
19312;SDS011;9791;50.820;4.406;2023-02-01T11:04:13;12.48;;;3.05;;
19312;SDS011;9791;50.820;4.406;2023-02-01T11:06:41;8.80;;;3.17;;
19312;SDS011;9791;50.820;4.406;2023-02-01T11:11:34;11.82;;;3.10;;
19312;SDS011;9791;50.820;4.406;2023-02-01T11:16:47;10.05;;;2.80;;
19312;SDS011;9791;50.820;4.406;2023-02-01T11:19:15;11.45;;;3.03;;
19312;SDS011;9791;50.820;4.406;2023-02-01T11:21:41;11.52;;;2.75;;
19312;SDS011;9791;50.820;4.406;2023-02-01T11:24:16;12.43;;;3.15;;
19312;SDS011;9791;50.820;4.406;2023-02-01T11:26:43;12.63;;;3.47;;
19312;SDS011;9791;50.820;4.406;2023-02-01T11:29:11;11.45;;;2.70;;
19312;SDS011;9791;50.820;4.406;2023-02-01T11:31:38;11.52;;;3.10;;
19312;SDS011;9791;50.820;4.406;2023-02-01T11:34:13;13.07;;;3.00;;
19312;SDS011;9791;50.820;4.406;2023-02-01T11:36:40;12.60;;;3.22;;
19312;SDS011;9791;50.820;4.406;2023-02-01T11:39:08;11.40;;;2.47;;
19312;SDS011;9791;50.820;4.406;2023-02-01T11:41:40;12.02;;;2.95;;
19312;SDS011;9791;50.820;4.406;2023-02-01T11:44:15;9.68;;;2.83;;
19312;SDS011;9791;50.820;4.406;2023-02-01T11:46:44;8.68;;;2.78;;
19312;SDS011;9791;50.820;4.406;2023-02-01T11:49:19;7.85;;;2.60;;
19312;SDS011;9791;50.820;4.406;2023-02-01T11:59:32;11.55;;;3.30;;
19312;SDS011;9791;50.820;4.406;2023-02-01T12:02:08;10.00;;;2.78;;
19312;SDS011;9791;50.820;4.406;2023-02-01T12:04:52;14.45;;;3.28;;
19312;SDS011;9791;50.820;4.406;2023-02-01T12:07:24;13.60;;;3.15;;
19312;SDS011;9791;50.820;4.406;2023-02-01T12:12:28;8.77;;;2.25;;
19312;SDS011;9791;50.820;4.406;2023-02-01T12:22:47;7.65;;;2.30;;
19312;SDS011;9791;50.820;4.406;2023-02-01T12:51:00;12.40;;;2.10;;
19312;SDS011;9791;50.820;4.406;2023-02-01T12:56:14;11.00;;;1.90;;
19312;SDS011;9791;50.820;4.406;2023-02-01T12:58:51;6.95;;;1.98;;
19312;SDS011;9791;50.820;4.406;2023-02-01T13:06:36;9.80;;;1.90;;
19312;SDS011;9791;50.820;4.406;2023-02-01T13:11:30;9.40;;;2.40;;
19312;SDS011;9791;50.820;4.406;2023-02-01T13:16:45;11.43;;;2.75;;
19312;SDS011;9791;50.820;4.406;2023-02-01T13:19:20;10.30;;;2.17;;
19312;SDS011;9791;50.820;4.406;2023-02-01T13:21:51;9.65;;;2.40;;
19312;SDS011;9791;50.820;4.406;2023-02-01T13:27:03;8.20;;;3.13;;
19312;SDS011;9791;50.820;4.406;2023-02-01T13:29:29;9.88;;;3.10;;
19312;SDS011;9791;50.820;4.406;2023-02-01T13:31:59;8.32;;;2.15;;
19312;SDS011;9791;50.820;4.406;2023-02-01T13:35:16;9.95;;;2.10;;
19312;SDS011;9791;50.820;4.406;2023-02-01T13:42:29;14.75;;;2.55;;
19312;SDS011;9791;50.820;4.406;2023-02-01T13:44:57;9.60;;;2.55;;
19312;SDS011;9791;50.820;4.406;2023-02-01T13:47:26;8.43;;;2.03;;
19312;SDS011;9791;50.820;4.406;2023-02-01T13:49:53;7.18;;;2.15;;
19312;SDS011;9791;50.820;4.406;2023-02-01T13:52:36;8.07;;;1.70;;
19312;SDS011;9791;50.820;4.406;2023-02-01T13:57:48;7.63;;;2.03;;
19312;SDS011;9791;50.820;4.406;2023-02-01T14:00:25;8.10;;;1.90;;
19312;SDS011;9791;50.820;4.406;2023-02-01T14:03:02;9.10;;;2.53;;
19312;SDS011;9791;50.820;4.406;2023-02-01T14:18:57;13.93;;;2.05;;
19312;SDS011;9791;50.820;4.406;2023-02-01T14:21:28;8.20;;;2.38;;
19312;SDS011;9791;50.820;4.406;2023-02-01T14:23:59;12.43;;;2.42;;
19312;SDS011;9791;50.820;4.406;2023-02-01T14:29:02;12.00;;;2.22;;
19312;SDS011;9791;50.820;4.406;2023-02-01T14:31:31;8.27;;;2.22;;
19312;SDS011;9791;50.820;4.406;2023-02-01T14:33:58;9.13;;;2.13;;
19312;SDS011;9791;50.820;4.406;2023-02-01T14:36:24;8.77;;;3.28;;
19312;SDS011;9791;50.820;4.406;2023-02-01T14:38:51;9.40;;;2.08;;
19312;SDS011;9791;50.820;4.406;2023-02-01T14:49:11;9.48;;;2.53;;
19312;SDS011;9791;50.820;4.406;2023-02-01T14:51:37;11.80;;;2.17;;
19312;SDS011;9791;50.820;4.406;2023-02-01T14:54:04;13.25;;;3.08;;
19312;SDS011;9791;50.820;4.406;2023-02-01T14:56:30;10.20;;;2.33;;
19312;SDS011;9791;50.820;4.406;2023-02-01T14:58:57;16.35;;;2.88;;
19312;SDS011;9791;50.820;4.406;2023-02-01T15:06:44;9.27;;;2.15;;
19312;SDS011;9791;50.820;4.406;2023-02-01T15:14:23;13.15;;;3.03;;
19312;SDS011;9791;50.820;4.406;2023-02-01T15:16:49;13.05;;;2.78;;
19312;SDS011;9791;50.820;4.406;2023-02-01T15:19:19;11.20;;;2.58;;
19312;SDS011;9791;50.820;4.406;2023-02-01T15:21:50;12.82;;;2.78;;
19312;SDS011;9791;50.820;4.406;2023-02-01T15:24:26;9.82;;;2.60;;
19312;SDS011;9791;50.820;4.406;2023-02-01T15:26:53;14.82;;;2.53;;
19312;SDS011;9791;50.820;4.406;2023-02-01T15:29:20;10.30;;;2.67;;
19312;SDS011;9791;50.820;4.406;2023-02-01T15:31:48;12.15;;;2.70;;
19312;SDS011;9791;50.820;4.406;2023-02-01T15:34:14;13.02;;;2.88;;
19312;SDS011;9791;50.820;4.406;2023-02-01T15:36:41;10.65;;;2.90;;
19312;SDS011;9791;50.820;4.406;2023-02-01T15:39:23;12.60;;;2.85;;
19312;SDS011;9791;50.820;4.406;2023-02-01T15:41:55;10.25;;;2.92;;
19312;SDS011;9791;50.820;4.406;2023-02-01T15:46:49;12.98;;;3.13;;
19312;SDS011;9791;50.820;4.406;2023-02-01T15:49:18;15.15;;;3.08;;
19312;SDS011;9791;50.820;4.406;2023-02-01T15:51:45;8.43;;;2.78;;
19312;SDS011;9791;50.820;4.406;2023-02-01T15:54:23;11.20;;;3.10;;
19312;SDS011;9791;50.820;4.406;2023-02-01T15:56:51;12.15;;;4.15;;
19312;SDS011;9791;50.820;4.406;2023-02-01T15:59:22;14.07;;;3.22;;
19312;SDS011;9791;50.820;4.406;2023-02-01T16:01:50;15.25;;;2.92;;
19312;SDS011;9791;50.820;4.406;2023-02-01T16:04:17;16.15;;;2.92;;
19312;SDS011;9791;50.820;4.406;2023-02-01T16:06:51;12.13;;;3.35;;
19312;SDS011;9791;50.820;4.406;2023-02-01T16:09:19;14.63;;;2.70;;
19312;SDS011;9791;50.820;4.406;2023-02-01T16:14:14;14.98;;;3.40;;
19312;SDS011;9791;50.820;4.406;2023-02-01T16:16:40;18.27;;;3.38;;
19312;SDS011;9791;50.820;4.406;2023-02-01T16:19:06;13.95;;;2.88;;
19312;SDS011;9791;50.820;4.406;2023-02-01T16:21:33;15.75;;;4.13;;
19312;SDS011;9791;50.820;4.406;2023-02-01T16:23:59;11.63;;;3.08;;
19312;SDS011;9791;50.820;4.406;2023-02-01T16:26:28;13.45;;;2.95;;
19312;SDS011;9791;50.820;4.406;2023-02-01T16:28:55;9.77;;;2.65;;
19312;SDS011;9791;50.820;4.406;2023-02-01T16:31:22;14.18;;;2.75;;
19312;SDS011;9791;50.820;4.406;2023-02-01T16:33:50;12.20;;;3.08;;
19312;SDS011;9791;50.820;4.406;2023-02-01T16:36:16;10.82;;;3.05;;
19312;SDS011;9791;50.820;4.406;2023-02-01T16:38:43;17.88;;;3.53;;
19312;SDS011;9791;50.820;4.406;2023-02-01T16:41:11;17.38;;;3.83;;
19312;SDS011;9791;50.820;4.406;2023-02-01T16:43:38;12.30;;;2.78;;
19312;SDS011;9791;50.820;4.406;2023-02-01T16:46:04;13.10;;;3.38;;
19312;SDS011;9791;50.820;4.406;2023-02-01T16:48:35;9.82;;;3.05;;
19312;SDS011;9791;50.820;4.406;2023-02-01T16:51:08;15.95;;;3.20;;
19312;SDS011;9791;50.820;4.406;2023-02-01T16:53:35;11.77;;;2.80;;
19312;SDS011;9791;50.820;4.406;2023-02-01T16:56:01;14.23;;;3.08;;
19312;SDS011;9791;50.820;4.406;2023-02-01T16:58:28;13.88;;;3.03;;
19312;SDS011;9791;50.820;4.406;2023-02-01T17:00:55;10.95;;;3.00;;
19312;SDS011;9791;50.820;4.406;2023-02-01T17:03:21;11.85;;;3.30;;
19312;SDS011;9791;50.820;4.406;2023-02-01T17:05:52;13.50;;;3.83;;
19312;SDS011;9791;50.820;4.406;2023-02-01T17:11:07;16.52;;;3.33;;
19312;SDS011;9791;50.820;4.406;2023-02-01T17:13:35;10.57;;;3.35;;
19312;SDS011;9791;50.820;4.406;2023-02-01T17:18:38;17.83;;;4.10;;
19312;SDS011;9791;50.820;4.406;2023-02-01T17:21:04;13.35;;;2.90;;
19312;SDS011;9791;50.820;4.406;2023-02-01T17:23:33;20.75;;;3.85;;
19312;SDS011;9791;50.820;4.406;2023-02-01T17:25:59;13.77;;;3.28;;
19312;SDS011;9791;50.820;4.406;2023-02-01T17:28:27;13.60;;;3.78;;
19312;SDS011;9791;50.820;4.406;2023-02-01T17:30:53;15.82;;;3.15;;
19312;SDS011;9791;50.820;4.406;2023-02-01T17:33:27;12.73;;;3.10;;
19312;SDS011;9791;50.820;4.406;2023-02-01T17:35:55;11.75;;;3.28;;
19312;SDS011;9791;50.820;4.406;2023-02-01T17:38:21;15.38;;;3.50;;
19312;SDS011;9791;50.820;4.406;2023-02-01T17:40:47;9.65;;;3.00;;
19312;SDS011;9791;50.820;4.406;2023-02-01T17:43:14;14.55;;;3.47;;
19312;SDS011;9791;50.820;4.406;2023-02-01T17:45:42;25.00;;;4.30;;
19312;SDS011;9791;50.820;4.406;2023-02-01T17:48:14;14.30;;;3.15;;
19312;SDS011;9791;50.820;4.406;2023-02-01T17:50:40;16.85;;;4.07;;